Terminal Aerodrome Forecast
Issued by NWS

Current Version | Previous Version | Text Only | Print | Product List | Glossary Off
Versions: 1 2 3 4 5 6 7 8 9 10 11 12 13 14 15 16

000
FTUS41 KPBZ 221100 AAA
TAFHLG
TAF AMD
KHLG 221156Z 2212/2312 23008KT 5SM -SHRA BKN025
     FM221400 25008G16KT P6SM -SHRA OVC015
     FM221800 33012G24KT P6SM BKN020
     FM222100 33010KT P6SM BKN040
     FM230700 33012G25KT P6SM OVC015=

USA.gov is the U.S. government's official web portal to all federal, state and local government web resources and services.